createdAt,value
2023-02-18T00:01:16.363Z,9.40
2023-02-18T00:03:44.442Z,10.23
2023-02-18T00:06:14.233Z,9.07
2023-02-18T00:08:42.570Z,6.07
2023-02-18T00:11:10.514Z,4.40
2023-02-18T00:13:39.686Z,9.80
2023-02-18T00:16:09.739Z,6.57
2023-02-18T00:18:38.013Z,8.27
2023-02-18T00:21:07.220Z,5.07
2023-02-18T00:23:35.572Z,7.57
2023-02-18T00:26:05.295Z,8.50
2023-02-18T00:28:33.483Z,9.20
2023-02-18T00:31:07.452Z,8.50
2023-02-18T00:33:35.495Z,6.47
2023-02-18T00:36:04.786Z,5.83
2023-02-18T00:38:32.864Z,6.37
2023-02-18T00:41:01.444Z,5.47
2023-02-18T00:43:32.139Z,5.43
2023-02-18T00:46:00.051Z,5.83
2023-02-18T00:48:29.536Z,6.20
2023-02-18T00:50:57.304Z,7.23
2023-02-18T00:53:25.165Z,6.97
2023-02-18T00:55:53.435Z,8.43
2023-02-18T00:58:21.225Z,6.67
2023-02-18T01:00:49.440Z,6.27
2023-02-18T01:03:17.351Z,4.33
2023-02-18T01:05:46.575Z,9.47
2023-02-18T01:08:14.327Z,7.17
2023-02-18T01:10:44.922Z,9.30
2023-02-18T01:13:13.541Z,9.27
2023-02-18T01:15:42.176Z,6.17
2023-02-18T01:18:10.988Z,7.00
2023-02-18T01:20:40.686Z,7.00
2023-02-18T01:23:10.447Z,6.77
2023-02-18T01:25:38.875Z,4.40
2023-02-18T01:28:07.827Z,7.33
2023-02-18T01:30:35.962Z,7.73
2023-02-18T01:33:03.769Z,6.37
2023-02-18T01:35:31.598Z,7.23
2023-02-18T01:37:59.461Z,8.53
2023-02-18T01:40:30.717Z,5.27
2023-02-18T01:42:58.475Z,5.17
2023-02-18T01:45:49.154Z,5.13
2023-02-18T01:48:20.910Z,6.37
2023-02-18T01:50:54.515Z,7.07
2023-02-18T01:53:31.202Z,8.03
2023-02-18T01:56:03.804Z,4.53
2023-02-18T01:58:31.999Z,7.23
2023-02-18T02:00:59.989Z,8.83
2023-02-18T02:03:27.882Z,6.27
2023-02-18T02:05:55.706Z,8.53
2023-02-18T02:08:23.643Z,2.83
2023-02-18T02:11:08.542Z,10.27
2023-02-18T02:13:48.385Z,7.33
2023-02-18T02:16:23.333Z,7.23
2023-02-18T02:19:03.281Z,5.83
2023-02-18T02:21:53.624Z,6.90
2023-02-18T02:25:02.095Z,6.23
2023-02-18T02:27:49.491Z,5.97
2023-02-18T02:30:42.938Z,6.27
2023-02-18T02:33:37.434Z,6.60
2023-02-18T02:36:14.148Z,9.23
2023-02-18T02:38:51.172Z,3.80
2023-02-18T02:41:28.778Z,8.30
2023-02-18T02:44:07.727Z,7.37
2023-02-18T02:46:39.924Z,7.17
2023-02-18T02:49:17.232Z,8.43
2023-02-18T02:51:52.191Z,6.70
2023-02-18T02:54:23.076Z,8.73
2023-02-18T02:56:51.287Z,7.13
2023-02-18T02:59:23.996Z,8.57
2023-02-18T03:02:09.928Z,5.00
2023-02-18T03:04:51.192Z,13.10
2023-02-18T03:07:34.737Z,6.17
2023-02-18T03:10:19.405Z,12.03
2023-02-18T03:12:53.650Z,7.53
2023-02-18T03:15:25.254Z,5.90
2023-02-18T03:17:58.963Z,8.53
2023-02-18T03:20:29.254Z,6.13
2023-02-18T03:23:01.159Z,7.00
2023-02-18T03:25:30.209Z,6.00
2023-02-18T03:28:02.621Z,14.43
2023-02-18T03:30:33.987Z,5.33
2023-02-18T03:33:06.668Z,14.50
2023-02-18T03:35:37.143Z,6.67
2023-02-18T03:38:13.084Z,10.40
2023-02-18T03:40:40.990Z,6.37
2023-02-18T03:43:08.945Z,6.37
2023-02-18T03:45:36.750Z,7.23
2023-02-18T03:48:04.844Z,9.20
2023-02-18T03:50:32.569Z,10.63
2023-02-18T03:53:00.229Z,15.00
2023-02-18T03:55:29.431Z,11.03
2023-02-18T03:57:57.200Z,12.10
2023-02-18T04:00:24.904Z,9.00
2023-02-18T04:02:52.709Z,13.73
2023-02-18T04:05:20.798Z,10.73
2023-02-18T04:07:48.570Z,11.83
2023-02-18T04:10:16.379Z,12.37
2023-02-18T04:12:45.660Z,11.67
2023-02-18T04:15:14.079Z,8.27
2023-02-18T04:17:41.805Z,14.27
2023-02-18T04:20:10.351Z,11.47
2023-02-18T04:22:38.048Z,10.83
2023-02-18T04:25:06.357Z,8.80
2023-02-18T04:27:34.024Z,17.40
2023-02-18T04:30:03.437Z,16.47
2023-02-18T04:32:31.229Z,19.87
2023-02-18T04:34:58.921Z,18.43
2023-02-18T04:37:26.821Z,19.63
2023-02-18T04:39:57.700Z,23.77
2023-02-18T04:42:26.384Z,20.07
2023-02-18T04:44:54.333Z,18.90
2023-02-18T04:47:23.815Z,17.80
2023-02-18T04:49:51.646Z,17.63
2023-02-18T04:52:19.569Z,19.97
2023-02-18T04:54:47.381Z,18.00
2023-02-18T04:57:15.126Z,16.07
2023-02-18T04:59:43.016Z,19.37
2023-02-18T05:02:10.823Z,19.10
2023-02-18T05:04:39.960Z,17.37
2023-02-18T05:07:07.844Z,16.77
2023-02-18T05:09:35.543Z,19.03
2023-02-18T05:12:03.303Z,16.63
2023-02-18T05:14:31.044Z,18.37
2023-02-18T05:16:58.985Z,17.00
2023-02-18T05:19:26.682Z,19.17
2023-02-18T05:21:55.792Z,19.00
2023-02-18T05:24:23.603Z,18.47
2023-02-18T05:26:51.638Z,16.53
2023-02-18T05:29:19.409Z,18.73
2023-02-18T05:31:47.289Z,20.20
2023-02-18T05:34:15.044Z,13.37
2023-02-18T05:36:42.790Z,16.53
2023-02-18T05:39:11.923Z,13.67
2023-02-18T05:41:39.819Z,17.57
2023-02-18T05:44:24.728Z,14.33
2023-02-18T05:46:52.661Z,15.40
2023-02-18T05:49:23.726Z,16.27
2023-02-18T05:51:53.679Z,15.23
2023-02-18T05:54:23.214Z,11.33
2023-02-18T05:56:51.190Z,18.53
2023-02-18T05:59:19.524Z,15.20
2023-02-18T06:01:47.965Z,16.40
2023-02-18T06:04:16.249Z,14.77
2023-02-18T06:06:44.446Z,18.10
2023-02-18T06:09:12.698Z,18.70
2023-02-18T06:11:41.838Z,15.83
2023-02-18T06:14:09.793Z,17.10
2023-02-18T06:16:37.780Z,16.63
2023-02-18T06:19:05.790Z,18.07
2023-02-18T06:21:33.775Z,20.20
2023-02-18T06:24:09.669Z,21.83
2023-02-18T06:26:54.248Z,19.57
2023-02-18T06:29:22.146Z,19.60
2023-02-18T06:31:50.124Z,19.93
2023-02-18T06:34:18.209Z,21.53
2023-02-18T06:36:46.300Z,19.47
2023-02-18T06:39:14.196Z,18.57
2023-02-18T06:41:43.424Z,20.37
2023-02-18T06:44:11.688Z,21.53
2023-02-18T06:46:39.487Z,23.73
2023-02-18T06:49:07.333Z,19.93
2023-02-18T06:51:35.173Z,18.63
2023-02-18T06:54:03.211Z,17.87
2023-02-18T06:56:31.173Z,21.53
2023-02-18T06:59:00.613Z,22.20
2023-02-18T07:01:28.454Z,23.03
2023-02-18T07:03:59.816Z,21.47
2023-02-18T07:06:35.047Z,21.73
2023-02-18T07:09:12.412Z,26.30
2023-02-18T07:11:52.404Z,24.40
2023-02-18T07:14:21.860Z,19.63
2023-02-18T07:17:19.970Z,20.20
2023-02-18T07:19:56.789Z,24.17
2023-02-18T07:22:35.237Z,23.40
2023-02-18T07:25:04.187Z,22.23
2023-02-18T07:27:45.124Z,25.60
2023-02-18T07:30:28.956Z,24.03
2023-02-18T07:32:56.952Z,23.60
2023-02-18T07:35:35.041Z,24.40
2023-02-18T07:38:27.203Z,22.80
2023-02-18T07:41:44.638Z,23.87
2023-02-18T07:44:41.579Z,20.13
2023-02-18T07:51:11.996Z,21.10
2023-02-18T07:54:04.521Z,21.90
2023-02-18T08:04:30.971Z,19.17
2023-02-18T08:07:09.460Z,22.97
2023-02-18T08:09:53.884Z,21.80
2023-02-18T08:16:07.436Z,21.17
2023-02-18T08:23:06.478Z,25.23
2023-02-18T08:25:57.569Z,21.90
2023-02-18T08:36:58.499Z,12.23
2023-02-18T08:41:02.324Z,11.43
2023-02-18T08:55:48.858Z,4.37
2023-02-18T08:58:50.168Z,3.63
2023-02-18T09:33:33.369Z,2.80
2023-02-18T09:44:14.606Z,1.87
2023-02-18T09:46:50.369Z,2.27
2023-02-18T09:49:24.056Z,2.50
2023-02-18T09:51:52.183Z,1.53
2023-02-18T09:56:56.762Z,0.80
2023-02-18T09:59:27.273Z,1.80
2023-02-18T10:01:57.171Z,1.40
2023-02-18T10:04:32.037Z,1.60
2023-02-18T10:07:02.136Z,0.90
2023-02-18T10:09:34.709Z,1.10
2023-02-18T10:12:14.337Z,1.47
2023-02-18T10:14:42.335Z,1.20
2023-02-18T10:17:16.224Z,1.00
2023-02-18T10:19:48.640Z,1.30
2023-02-18T10:22:17.778Z,1.20
2023-02-18T10:24:49.426Z,1.43
2023-02-18T10:27:24.536Z,1.83
2023-02-18T10:29:52.499Z,2.50
2023-02-18T10:32:24.124Z,2.00
2023-02-18T10:35:04.095Z,1.57
2023-02-18T10:37:55.785Z,1.60
2023-02-18T10:40:33.331Z,1.57
2023-02-18T10:43:11.979Z,2.57
2023-02-18T10:45:48.817Z,1.70
2023-02-18T10:48:37.242Z,2.03
2023-02-18T10:51:15.665Z,1.60
2023-02-18T10:53:46.604Z,2.27
2023-02-18T10:56:34.991Z,2.80
2023-02-18T10:59:10.810Z,1.57
2023-02-18T11:01:39.208Z,2.63
2023-02-18T11:04:13.741Z,1.40
2023-02-18T11:06:46.378Z,2.37
2023-02-18T11:09:31.170Z,1.07
2023-02-18T11:12:08.661Z,2.67
2023-02-18T11:14:43.021Z,0.97
2023-02-18T11:17:17.738Z,0.93
2023-02-18T11:19:54.525Z,2.53
2023-02-18T11:22:25.907Z,1.37
2023-02-18T11:24:58.433Z,2.17
2023-02-18T11:27:32.214Z,1.90
2023-02-18T11:30:04.084Z,1.30
2023-02-18T11:32:35.681Z,1.40
2023-02-18T11:35:04.353Z,2.47
2023-02-18T11:37:37.693Z,2.13
2023-02-18T11:40:06.582Z,1.40
2023-02-18T11:42:34.303Z,1.40
2023-02-18T11:45:04.454Z,1.50
2023-02-18T11:47:35.016Z,1.73
2023-02-18T11:50:26.547Z,1.60
2023-02-18T11:52:57.435Z,1.70
2023-02-18T11:55:27.422Z,1.73
2023-02-18T11:57:58.004Z,2.00
2023-02-18T12:00:36.686Z,2.10
2023-02-18T12:03:08.876Z,1.70
2023-02-18T12:05:38.889Z,1.37
2023-02-18T12:08:14.955Z,2.13
2023-02-18T12:10:45.846Z,1.60
2023-02-18T12:13:25.891Z,1.73
2023-02-18T12:16:14.470Z,1.10
2023-02-18T12:19:04.420Z,1.20
2023-02-18T12:21:41.299Z,2.33
2023-02-18T12:24:24.872Z,1.50
2023-02-18T12:27:00.417Z,0.87
2023-02-18T12:29:43.885Z,0.87
2023-02-18T12:32:23.117Z,1.20
2023-02-18T12:35:04.443Z,2.17
2023-02-18T12:38:10.884Z,1.03
2023-02-18T12:40:54.814Z,1.40
2023-02-18T12:43:35.028Z,0.80
2023-02-18T12:46:22.356Z,0.80
2023-02-18T12:49:02.376Z,2.27
2023-02-18T12:51:39.604Z,1.10
2023-02-18T12:54:34.336Z,1.50
2023-02-18T12:57:24.853Z,1.10
2023-02-18T13:00:18.829Z,1.13
2023-02-18T13:03:04.982Z,1.60
2023-02-18T13:05:45.838Z,1.90
2023-02-18T13:08:33.208Z,1.83
2023-02-18T13:11:20.313Z,2.13
2023-02-18T13:13:58.643Z,2.07
2023-02-18T13:16:29.416Z,1.67
2023-02-18T13:19:02.913Z,4.10
2023-02-18T13:21:32.047Z,1.90
2023-02-18T13:24:03.378Z,4.60
2023-02-18T13:26:33.472Z,3.40
2023-02-18T13:29:17.860Z,1.77
2023-02-18T13:31:52.552Z,2.97
2023-02-18T13:34:26.536Z,1.80
2023-02-18T13:37:02.910Z,2.17
2023-02-18T13:39:32.556Z,2.17
2023-02-18T13:42:25.602Z,2.20
2023-02-18T13:45:32.507Z,1.67
2023-02-18T13:48:01.935Z,3.73
2023-02-18T13:50:33.869Z,2.73
2023-02-18T13:53:19.953Z,4.30
2023-02-18T13:55:53.837Z,1.73
2023-02-18T13:58:25.399Z,2.53
2023-02-18T14:00:58.244Z,2.80
2023-02-18T14:03:51.105Z,2.47
2023-02-18T14:06:20.924Z,3.63
2023-02-18T14:08:49.785Z,3.50
2023-02-18T14:11:34.970Z,2.30
2023-02-18T14:14:46.114Z,4.60
2023-02-18T14:17:30.931Z,4.47
2023-02-18T14:20:31.201Z,2.30
2023-02-18T14:22:59.222Z,3.03
2023-02-18T14:25:36.253Z,3.17
2023-02-18T14:28:05.940Z,6.00
2023-02-18T14:30:41.049Z,3.97
2023-02-18T14:33:17.498Z,4.07
2023-02-18T14:35:49.934Z,4.00
2023-02-18T14:38:36.992Z,2.57
2023-02-18T14:41:40.020Z,3.00
2023-02-18T14:44:44.778Z,3.27
2023-02-18T14:47:25.531Z,2.83
2023-02-18T14:49:58.945Z,3.93
2023-02-18T14:52:32.687Z,3.53
2023-02-18T14:55:03.571Z,4.23
2023-02-18T14:57:38.123Z,4.07
2023-02-18T15:00:07.614Z,5.33
2023-02-18T15:02:39.461Z,4.70
2023-02-18T15:05:16.638Z,5.27
2023-02-18T15:07:56.092Z,4.73
2023-02-18T15:10:26.709Z,10.17
2023-02-18T15:12:56.334Z,3.57
2023-02-18T15:15:24.833Z,4.53
2023-02-18T15:17:52.780Z,4.33
2023-02-18T15:20:21.880Z,4.47
2023-02-18T15:22:49.693Z,6.50
2023-02-18T15:25:17.474Z,6.07
2023-02-18T15:27:46.909Z,7.50
2023-02-18T15:30:22.173Z,5.67
2023-02-18T15:32:54.367Z,7.00
2023-02-18T15:35:24.785Z,4.77
2023-02-18T15:37:54.727Z,5.73
2023-02-18T15:40:25.326Z,6.47
2023-02-18T15:42:57.425Z,5.03
2023-02-18T15:45:30.838Z,8.47
2023-02-18T15:47:59.492Z,7.87
2023-02-18T15:50:30.639Z,5.17
2023-02-18T15:53:00.720Z,9.23
2023-02-18T15:55:32.190Z,10.73
2023-02-18T15:58:02.767Z,6.53
2023-02-18T16:00:34.433Z,7.30
2023-02-18T16:03:05.586Z,6.57
2023-02-18T16:05:39.372Z,9.87
2023-02-18T16:08:13.983Z,9.07
2023-02-18T16:10:54.484Z,8.30
2023-02-18T16:13:25.102Z,8.17
2023-02-18T16:15:54.645Z,7.90
2023-02-18T16:18:29.988Z,6.30
2023-02-18T16:21:02.371Z,8.10
2023-02-18T16:23:37.282Z,6.20
2023-02-18T16:26:22.629Z,8.07
2023-02-18T16:28:53.679Z,8.53
2023-02-18T16:31:22.038Z,10.63
2023-02-18T16:33:50.612Z,11.23
2023-02-18T16:36:21.287Z,8.70
2023-02-18T16:38:49.470Z,9.00
2023-02-18T16:41:18.636Z,11.83
2023-02-18T16:43:46.302Z,5.77
2023-02-18T16:46:17.504Z,8.77
2023-02-18T16:48:47.056Z,7.47
2023-02-18T16:51:17.654Z,10.27
2023-02-18T16:53:46.743Z,8.80
2023-02-18T16:56:16.347Z,5.23
2023-02-18T16:58:44.341Z,5.90
2023-02-18T17:01:23.653Z,8.83
2023-02-18T17:03:51.733Z,8.80
2023-02-18T17:06:19.734Z,7.63
2023-02-18T17:08:49.424Z,9.20
2023-02-18T17:11:23.724Z,8.93
2023-02-18T17:13:51.744Z,9.43
2023-02-18T17:16:20.368Z,7.77
2023-02-18T17:18:48.701Z,7.03
2023-02-18T17:21:19.463Z,6.67
2023-02-18T17:23:49.197Z,10.93
2023-02-18T17:26:22.946Z,6.53
2023-02-18T17:28:51.446Z,5.83
2023-02-18T17:31:23.412Z,7.13
2023-02-18T17:33:51.526Z,5.73
2023-02-18T17:36:19.804Z,6.50
2023-02-18T17:38:49.304Z,6.60
2023-02-18T17:41:17.634Z,7.60
2023-02-18T17:43:46.083Z,7.97
2023-02-18T17:46:16.066Z,5.63
2023-02-18T17:48:45.298Z,6.07
2023-02-18T17:51:24.382Z,4.77
2023-02-18T17:53:54.060Z,8.90
2023-02-18T17:56:21.908Z,5.30
2023-02-18T17:58:49.749Z,5.77
2023-02-18T18:01:18.515Z,5.33
2023-02-18T18:03:46.408Z,6.13
2023-02-18T18:06:17.398Z,7.47
2023-02-18T18:08:45.232Z,6.43
2023-02-18T18:11:18.058Z,10.47
2023-02-18T18:13:46.593Z,5.80
2023-02-18T18:16:16.263Z,7.43
2023-02-18T18:18:44.332Z,4.13
2023-02-18T18:21:20.677Z,9.63
2023-02-18T18:23:48.346Z,7.03
2023-02-18T18:26:18.114Z,3.70
2023-02-18T18:28:45.773Z,6.40
2023-02-18T18:31:18.592Z,8.43
2023-02-18T18:33:48.828Z,6.37
2023-02-18T18:36:16.930Z,6.40
2023-02-18T18:38:44.619Z,6.00
2023-02-18T18:41:15.427Z,6.47
2023-02-18T18:43:44.606Z,7.30
2023-02-18T18:46:12.401Z,9.10
2023-02-18T18:48:40.208Z,6.20
2023-02-18T18:51:08.115Z,4.67
2023-02-18T18:53:36.679Z,6.27
2023-02-18T18:56:06.504Z,6.23
2023-02-18T18:58:34.497Z,5.70
2023-02-18T19:01:06.817Z,7.20
2023-02-18T19:03:35.495Z,6.03
2023-02-18T19:06:03.276Z,5.23
2023-02-18T19:08:32.287Z,6.07
2023-02-18T19:11:00.045Z,6.23
2023-02-18T19:13:29.361Z,6.90
2023-02-18T19:16:02.258Z,11.03
2023-02-18T19:18:33.580Z,7.03
2023-02-18T19:21:03.404Z,7.47
2023-02-18T19:23:31.271Z,7.37
2023-02-18T19:25:59.235Z,8.13
2023-02-18T19:28:27.483Z,6.53
2023-02-18T19:30:55.190Z,7.23
2023-02-18T19:33:23.131Z,7.03
2023-02-18T19:35:52.137Z,9.00
2023-02-18T19:38:21.172Z,4.70
2023-02-18T19:40:48.928Z,9.63
2023-02-18T19:43:16.835Z,5.10
2023-02-18T19:45:46.832Z,7.30
2023-02-18T19:48:16.262Z,5.47
2023-02-18T19:50:44.962Z,6.10
2023-02-18T19:53:13.991Z,10.70
2023-02-18T19:55:41.687Z,8.17
2023-02-18T19:58:09.396Z,9.43
2023-02-18T20:00:37.102Z,7.97
2023-02-18T20:03:04.890Z,5.70
2023-02-18T20:05:32.550Z,5.17
2023-02-18T20:08:00.273Z,4.97
2023-02-18T20:10:29.305Z,8.40
2023-02-18T20:12:56.975Z,8.23
2023-02-18T20:15:24.852Z,7.77
2023-02-18T20:17:52.498Z,10.43
2023-02-18T20:20:20.730Z,6.33
2023-02-18T20:22:48.518Z,7.20
2023-02-18T20:25:16.347Z,7.90
2023-02-18T20:27:59.762Z,7.50
2023-02-18T20:30:28.922Z,11.23
2023-02-18T20:32:56.665Z,8.33
2023-02-18T20:35:24.423Z,5.37
2023-02-18T20:37:52.128Z,7.50
2023-02-18T20:40:19.987Z,9.70
2023-02-18T20:42:49.607Z,8.90
2023-02-18T20:45:17.464Z,9.70
2023-02-18T20:47:45.143Z,5.73
2023-02-18T20:50:12.780Z,8.53
2023-02-18T20:52:40.883Z,6.47
2023-02-18T20:55:08.771Z,9.43
2023-02-18T20:57:36.624Z,5.87
2023-02-18T21:00:06.835Z,8.60
2023-02-18T21:02:34.594Z,6.80
2023-02-18T21:05:02.318Z,7.57
2023-02-18T21:07:30.018Z,5.50
2023-02-18T21:09:57.674Z,8.17
2023-02-18T21:12:25.281Z,7.93
2023-02-18T21:14:53.010Z,7.93
2023-02-18T21:17:22.878Z,7.33
2023-02-18T21:19:50.606Z,7.27
2023-02-18T21:22:18.253Z,8.10
2023-02-18T21:24:45.902Z,10.13
2023-02-18T21:27:13.626Z,10.30
2023-02-18T21:29:41.282Z,8.97
2023-02-18T21:32:09.200Z,6.67
2023-02-18T21:34:38.571Z,13.50
2023-02-18T21:37:06.235Z,9.47
2023-02-18T21:39:33.904Z,9.73
2023-02-18T21:42:04.064Z,10.37
2023-02-18T21:44:41.956Z,8.67
2023-02-18T21:47:10.584Z,10.70
2023-02-18T21:49:39.747Z,8.00
2023-02-18T21:52:09.383Z,7.20
2023-02-18T21:54:40.113Z,9.40
2023-02-18T21:57:11.280Z,8.33
2023-02-18T21:59:39.501Z,13.83
2023-02-18T22:02:09.884Z,14.97
2023-02-18T22:04:40.029Z,13.17
2023-02-18T22:07:08.802Z,6.73
2023-02-18T22:09:36.728Z,6.67
2023-02-18T22:12:05.275Z,12.17
2023-02-18T22:14:32.956Z,14.00
2023-02-18T22:17:01.130Z,9.27
2023-02-18T22:19:28.829Z,11.37
2023-02-18T22:21:58.190Z,11.57
2023-02-18T22:24:25.907Z,13.67
2023-02-18T22:26:53.869Z,16.37
2023-02-18T22:29:22.153Z,11.23
2023-02-18T22:31:53.172Z,10.23
2023-02-18T22:34:21.688Z,7.53
2023-02-18T22:36:49.623Z,10.10
2023-02-18T22:39:18.792Z,11.67
2023-02-18T22:41:46.662Z,12.07
2023-02-18T22:44:16.645Z,12.17
2023-02-18T22:46:45.396Z,13.37
2023-02-18T22:49:13.424Z,12.60
2023-02-18T22:51:42.693Z,8.17
2023-02-18T22:54:13.204Z,9.53
2023-02-18T22:56:44.549Z,11.07
2023-02-18T22:59:12.827Z,12.87
2023-02-18T23:01:42.261Z,11.97
2023-02-18T23:04:12.135Z,12.47
2023-02-18T23:06:42.478Z,12.33
2023-02-18T23:09:14.216Z,10.40
2023-02-18T23:11:43.631Z,9.57
2023-02-18T23:14:21.382Z,11.43
2023-02-18T23:17:13.611Z,9.03
2023-02-18T23:19:42.502Z,13.17
2023-02-18T23:22:11.798Z,8.57
2023-02-18T23:24:41.689Z,10.27
2023-02-18T23:27:13.323Z,10.23
2023-02-18T23:29:41.450Z,7.87
2023-02-18T23:32:09.888Z,9.63
2023-02-18T23:34:39.071Z,10.67
2023-02-18T23:37:07.156Z,6.40
2023-02-18T23:39:35.237Z,8.43
2023-02-18T23:42:02.925Z,13.93
2023-02-18T23:44:32.024Z,9.30
2023-02-18T23:47:00.246Z,12.57
2023-02-18T23:49:28.669Z,10.47
2023-02-18T23:51:57.997Z,11.83
2023-02-18T23:54:25.986Z,10.27
2023-02-18T23:56:54.168Z,15.17
2023-02-18T23:59:21.958Z,11.17
